createdAt,value
2018-04-14T15:38:54.136Z,31.67
2018-04-14T15:41:22.906Z,34.77
2018-04-14T15:43:50.677Z,33.40
2018-04-14T15:46:18.401Z,33.60
2018-04-14T15:48:46.305Z,36.13
2018-04-14T15:51:14.055Z,36.80
2018-04-14T15:53:41.897Z,35.40
2018-04-14T15:56:09.632Z,35.33
2018-04-14T15:58:37.402Z,37.10
2018-04-14T16:01:05.650Z,34.50
2018-04-14T16:03:44.627Z,34.23
2018-04-14T16:06:05.322Z,40.20
2018-04-14T16:08:33.180Z,32.63
2018-04-14T16:11:00.912Z,41.47
2018-04-14T16:13:29.458Z,34.20
2018-04-14T16:15:57.320Z,38.30
2018-04-14T16:18:25.141Z,36.80
2018-04-14T16:20:53.981Z,36.30
2018-04-14T16:23:21.952Z,36.37
2018-04-14T16:25:50.898Z,37.93
2018-04-14T16:28:18.663Z,43.67
2018-04-14T16:30:46.417Z,40.30
2018-04-14T16:33:14.516Z,35.80
2018-04-14T16:35:43.559Z,37.30
2018-04-14T16:38:11.436Z,42.27
2018-04-14T16:40:39.977Z,38.53
2018-04-14T16:43:07.795Z,40.10
2018-04-14T16:45:35.568Z,48.83
2018-04-14T16:48:03.782Z,41.97
2018-04-14T16:50:31.611Z,41.47
2018-04-14T16:52:59.369Z,46.50
2018-04-14T16:55:27.144Z,46.97
2018-04-14T16:57:54.907Z,42.13
2018-04-14T17:00:23.838Z,43.30
2018-04-14T17:02:52.935Z,46.60
2018-04-14T17:05:21.472Z,44.87
2018-04-14T17:07:49.362Z,41.03
2018-04-14T17:10:18.965Z,46.10
2018-04-14T17:12:48.787Z,42.53
2018-04-14T17:15:16.525Z,45.93
2018-04-14T17:17:44.322Z,46.60
2018-04-14T17:20:12.128Z,47.87
2018-04-14T17:22:40.674Z,47.80
2018-04-14T17:25:08.448Z,39.60
2018-04-14T17:27:37.534Z,41.30
2018-04-14T17:30:06.760Z,38.83
2018-04-14T17:32:36.728Z,42.23
2018-04-14T17:35:05.491Z,45.40
2018-04-14T17:37:35.316Z,47.87
2018-04-14T17:40:04.769Z,43.10
2018-04-14T17:42:34.220Z,41.80
2018-04-14T17:45:03.455Z,42.33
2018-04-14T17:47:31.338Z,42.47
2018-04-14T17:50:00.863Z,47.80
2018-04-14T17:52:28.617Z,44.17
2018-04-14T17:54:57.157Z,47.27
2018-04-14T17:57:24.927Z,47.17
2018-04-14T17:59:52.696Z,60.17
2018-04-14T18:02:20.589Z,52.37
2018-04-14T18:04:49.124Z,42.30
2018-04-14T18:07:16.855Z,48.83
2018-04-14T18:09:44.639Z,44.63
2018-04-14T18:12:14.237Z,46.07
2018-04-14T18:14:43.047Z,50.67
2018-04-14T18:17:10.778Z,51.83
2018-04-14T18:19:38.940Z,45.00
2018-04-14T18:22:07.533Z,52.57
2018-04-14T18:24:35.342Z,52.20
2018-04-14T18:27:03.182Z,48.60
2018-04-14T18:29:30.984Z,52.13
2018-04-14T18:32:00.534Z,47.47
2018-04-14T18:34:28.324Z,53.07
2018-04-14T18:36:56.117Z,53.07
2018-04-14T18:39:23.899Z,52.07
2018-04-14T18:41:51.670Z,47.20
2018-04-14T18:44:20.265Z,50.30
2018-04-14T18:46:49.583Z,50.80
2018-04-14T18:49:17.385Z,51.77
2018-04-14T18:51:47.015Z,64.43
2018-04-14T18:54:14.851Z,53.53
2018-04-14T18:56:42.675Z,55.10
2018-04-14T18:59:11.269Z,62.57
2018-04-14T19:01:39.054Z,52.67
2018-04-14T19:04:06.825Z,56.23
2018-04-14T19:06:34.758Z,64.70
2018-04-14T19:09:02.541Z,53.33
2018-04-14T19:11:30.349Z,51.73
2018-04-14T19:13:58.121Z,63.50
2018-04-14T19:16:26.093Z,51.30
2018-04-14T19:18:53.840Z,52.23
2018-04-14T19:21:22.747Z,61.73
2018-04-14T19:23:54.353Z,54.60
2018-04-14T19:26:22.147Z,51.20
2018-04-14T19:28:50.436Z,43.40
2018-04-14T19:31:18.201Z,50.30
2018-04-14T19:33:45.932Z,51.67
2018-04-14T19:36:13.722Z,56.13
2018-04-14T19:38:41.456Z,50.33
2018-04-14T19:41:09.215Z,56.37
2018-04-14T19:43:37.634Z,64.00
2018-04-14T19:46:05.404Z,64.00
2018-04-14T19:48:33.172Z,63.80
2018-04-14T19:51:00.941Z,63.60
2018-04-14T19:53:28.695Z,64.83
2018-04-14T19:55:56.578Z,62.77
2018-04-14T19:58:24.369Z,56.93
2018-04-14T20:00:52.139Z,59.97
2018-04-14T20:03:19.905Z,56.20
2018-04-14T20:05:47.680Z,61.70
2018-04-14T20:08:15.504Z,64.07
2018-04-14T20:10:43.243Z,59.60
2018-04-14T20:13:16.168Z,57.47
2018-04-14T20:15:45.828Z,61.17
2018-04-14T20:18:13.599Z,59.10
2018-04-14T20:20:41.557Z,53.47
2018-04-14T20:23:09.299Z,61.30
2018-04-14T20:25:37.018Z,64.20
2018-04-14T20:28:04.842Z,61.10
2018-04-14T20:30:32.567Z,65.20
2018-04-14T20:33:00.348Z,67.60
2018-04-14T20:35:28.135Z,59.77
2018-04-14T20:37:55.855Z,59.00
2018-04-14T20:40:24.408Z,69.97
2018-04-14T20:42:52.803Z,68.73
2018-04-14T20:45:23.857Z,61.10
2018-04-14T20:47:55.533Z,64.27
2018-04-14T20:50:24.247Z,68.97
2018-04-14T20:52:52.005Z,61.17
2018-04-14T20:55:19.851Z,72.43
2018-04-14T20:57:48.337Z,73.67
2018-04-14T21:00:16.132Z,82.43
2018-04-14T21:02:43.997Z,78.30
2018-04-14T21:05:11.724Z,74.53
2018-04-14T21:07:40.293Z,79.50
2018-04-14T21:10:08.869Z,63.60
2018-04-14T21:12:36.611Z,65.27
2018-04-14T21:15:04.376Z,74.27
2018-04-14T21:17:32.102Z,79.50
2018-04-14T21:19:59.911Z,67.30
2018-04-14T21:22:29.912Z,77.30
2018-04-14T21:25:00.700Z,71.77
2018-04-14T21:27:29.970Z,68.77
2018-04-14T21:30:01.846Z,69.27
2018-04-14T21:32:31.920Z,67.63
2018-04-14T21:35:01.024Z,70.63
2018-04-14T21:37:29.041Z,64.90
2018-04-14T21:39:58.381Z,63.93
2018-04-14T21:42:27.246Z,74.67
2018-04-14T21:44:55.484Z,72.00
2018-04-14T21:47:23.868Z,82.63
2018-04-14T21:49:52.897Z,86.73
2018-04-14T21:52:20.629Z,77.47
2018-04-14T21:54:48.501Z,77.60
2018-04-14T21:57:16.238Z,72.70
2018-04-14T21:59:44.732Z,62.13
2018-04-14T22:02:12.558Z,77.17
2018-04-14T22:04:40.275Z,76.70
2018-04-14T22:07:08.134Z,71.40
2018-04-14T22:09:35.847Z,79.53
2018-04-14T22:12:03.656Z,87.17
2018-04-14T22:14:33.599Z,63.70
2018-04-14T22:17:02.150Z,80.63
2018-04-14T22:19:29.933Z,97.00
2018-04-14T22:21:58.055Z,104.73
2018-04-14T22:24:25.786Z,107.93
2018-04-14T22:26:54.293Z,94.53
2018-04-14T22:29:22.163Z,108.33
2018-04-14T22:31:49.894Z,110.30
2018-04-14T22:34:17.607Z,92.77
2018-04-14T22:36:45.356Z,83.93
2018-04-14T22:39:13.091Z,81.10
2018-04-14T22:41:41.620Z,80.93
2018-04-14T22:44:09.449Z,70.73
2018-04-14T22:46:38.472Z,72.13
2018-04-14T22:49:06.255Z,71.63
2018-04-14T22:51:34.196Z,67.97
2018-04-14T22:54:02.021Z,68.47
2018-04-14T22:56:29.738Z,74.63
2018-04-14T22:59:02.997Z,85.40
2018-04-14T23:01:31.663Z,98.73
2018-04-14T23:03:59.436Z,87.57
2018-04-14T23:06:27.204Z,104.80
2018-04-14T23:08:55.724Z,97.07
2018-04-14T23:11:24.067Z,90.10
2018-04-14T23:13:52.555Z,84.90
2018-04-14T23:16:21.045Z,98.57
2018-04-14T23:18:48.812Z,92.37
2018-04-14T23:21:17.371Z,88.40
2018-04-14T23:23:45.090Z,84.93
2018-04-14T23:26:12.835Z,93.63
2018-04-14T23:28:40.719Z,94.23
2018-04-14T23:31:08.493Z,85.33
2018-04-14T23:33:36.218Z,82.93
2018-04-14T23:36:04.850Z,88.23
2018-04-14T23:38:32.573Z,78.80
2018-04-14T23:41:00.308Z,87.60
2018-04-14T23:43:28.081Z,90.50
2018-04-14T23:45:56.599Z,79.10
2018-04-14T23:48:24.344Z,86.97
2018-04-14T23:50:52.103Z,80.10
2018-04-14T23:53:20.610Z,85.93
2018-04-14T23:55:48.495Z,79.33
2018-04-14T23:58:16.281Z,77.37
